createdAt,value
2023-05-16T00:00:34.670Z,91.35
2023-05-16T00:03:21.113Z,91.50
2023-05-16T00:05:47.424Z,91.54
2023-05-16T00:08:13.660Z,91.65
2023-05-16T00:10:40.009Z,91.81
2023-05-16T00:13:06.507Z,92.07
2023-05-16T00:15:32.878Z,92.13
2023-05-16T00:17:59.634Z,92.18
2023-05-16T00:20:27.464Z,92.21
2023-05-16T00:22:54.811Z,92.34
2023-05-16T00:25:21.109Z,92.45
2023-05-16T00:27:47.444Z,92.46
2023-05-16T00:30:13.724Z,92.51
2023-05-16T00:32:40.054Z,92.44
2023-05-16T00:35:10.037Z,92.51
2023-05-16T00:37:37.847Z,92.40
2023-05-16T00:40:06.860Z,92.32
2023-05-16T00:42:34.074Z,92.22
2023-05-16T00:45:00.673Z,92.26
2023-05-16T00:47:26.962Z,92.33
2023-05-16T00:49:53.363Z,92.21
2023-05-16T00:52:19.875Z,92.26
2023-05-16T00:54:46.340Z,92.21
2023-05-16T00:57:12.910Z,92.16
2023-05-16T00:59:41.944Z,92.16
2023-05-16T01:02:08.379Z,92.14
2023-05-16T01:04:35.090Z,92.05
2023-05-16T01:07:02.106Z,92.15
2023-05-16T01:09:28.510Z,92.23
2023-05-16T01:12:17.539Z,92.04
2023-05-16T01:15:00.736Z,91.94
2023-05-16T01:18:12.049Z,91.98
2023-05-16T01:21:03.277Z,91.94
2023-05-16T01:23:48.930Z,91.81
2023-05-16T01:26:21.861Z,91.65
2023-05-16T01:28:50.293Z,91.50
2023-05-16T01:31:16.898Z,91.38
2023-05-16T01:33:43.580Z,91.39
2023-05-16T01:36:29.776Z,91.45
2023-05-16T01:39:00.976Z,91.62
2023-05-16T01:41:37.921Z,91.56
2023-05-16T01:44:10.979Z,91.61
2023-05-16T01:46:43.530Z,91.52
2023-05-16T01:49:16.606Z,91.50
2023-05-16T01:51:50.931Z,91.63
2023-05-16T01:54:19.667Z,91.74
2023-05-16T01:56:52.877Z,91.72
2023-05-16T01:59:24.536Z,91.63
2023-05-16T02:01:54.445Z,91.64
2023-05-16T02:04:21.649Z,91.60
2023-05-16T02:06:48.231Z,91.60
2023-05-16T02:09:15.638Z,91.54
2023-05-16T02:11:41.943Z,91.37
2023-05-16T02:14:08.783Z,91.36
2023-05-16T02:16:36.011Z,91.36
2023-05-16T02:19:02.355Z,91.43
2023-05-16T02:21:28.768Z,91.37
2023-05-16T02:23:55.155Z,91.32
2023-05-16T02:26:21.882Z,91.41
2023-05-16T02:28:51.023Z,91.41
2023-05-16T02:31:28.648Z,91.34
2023-05-16T02:33:55.113Z,91.43
2023-05-16T02:36:21.729Z,91.47
2023-05-16T02:38:48.239Z,91.32
2023-05-16T02:41:14.695Z,91.30
2023-05-16T02:43:41.195Z,91.23
2023-05-16T02:46:21.363Z,91.18
2023-05-16T02:48:47.907Z,91.17
2023-05-16T02:51:14.310Z,91.24
2023-05-16T02:53:41.121Z,91.16
2023-05-16T02:56:08.174Z,91.13
2023-05-16T02:58:34.675Z,90.95
2023-05-16T03:01:01.266Z,90.96
2023-05-16T03:03:27.639Z,91.07
2023-05-16T03:05:53.948Z,91.21
2023-05-16T03:08:20.498Z,91.40
2023-05-16T03:10:46.836Z,91.65
2023-05-16T03:13:13.276Z,91.66
2023-05-16T03:15:39.680Z,91.71
2023-05-16T03:18:05.932Z,91.77
2023-05-16T03:20:32.353Z,91.96
2023-05-16T03:22:58.778Z,91.85
2023-05-16T03:25:26.714Z,91.78
2023-05-16T03:27:53.385Z,91.91
2023-05-16T03:30:19.776Z,91.87
2023-05-16T03:32:46.166Z,91.88
2023-05-16T03:35:12.835Z,91.95
2023-05-16T03:37:39.759Z,92.01
2023-05-16T03:40:07.733Z,92.10
2023-05-16T03:42:34.398Z,92.15
2023-05-16T03:45:00.712Z,92.13
2023-05-16T03:47:30.526Z,92.03
2023-05-16T03:49:57.265Z,92.01
2023-05-16T03:52:24.175Z,92.04
2023-05-16T03:54:50.461Z,92.03
2023-05-16T03:57:16.843Z,92.14
2023-05-16T03:59:43.685Z,92.20
2023-05-16T04:02:12.788Z,92.17
2023-05-16T04:04:39.117Z,92.12
2023-05-16T04:07:06.006Z,92.16
2023-05-16T04:09:32.226Z,92.09
2023-05-16T04:12:01.265Z,92.00
2023-05-16T04:14:27.765Z,91.92
2023-05-16T04:16:54.501Z,91.83
2023-05-16T04:19:20.893Z,91.69
2023-05-16T04:21:47.671Z,91.77
2023-05-16T04:24:14.307Z,91.46
2023-05-16T04:26:40.720Z,91.44
2023-05-16T04:29:07.583Z,91.14
2023-05-16T04:31:33.957Z,91.04
2023-05-16T04:34:01.039Z,90.77
2023-05-16T04:36:29.563Z,90.56
2023-05-16T04:38:56.993Z,90.20
2023-05-16T04:41:23.589Z,89.92
2023-05-16T04:43:50.181Z,89.46
2023-05-16T04:46:16.751Z,89.52
2023-05-16T04:48:43.131Z,89.26
2023-05-16T04:51:09.409Z,88.31
2023-05-16T04:53:36.147Z,87.64
2023-05-16T04:56:04.393Z,87.83
2023-05-16T04:58:31.244Z,87.30
2023-05-16T05:00:57.530Z,87.34
2023-05-16T05:03:23.818Z,86.93
2023-05-16T05:05:51.157Z,86.64
2023-05-16T05:08:18.303Z,86.25
2023-05-16T05:10:44.625Z,84.83
2023-05-16T05:13:11.211Z,85.06
2023-05-16T05:15:38.045Z,84.63
2023-05-16T05:18:04.554Z,83.53
2023-05-16T05:20:31.655Z,83.89
2023-05-16T05:22:57.925Z,83.63
2023-05-16T05:25:24.415Z,83.10
2023-05-16T05:27:50.860Z,83.01
2023-05-16T05:30:18.093Z,82.66
2023-05-16T05:32:44.498Z,82.42
2023-05-16T05:35:11.156Z,82.03
2023-05-16T05:37:37.428Z,81.69
2023-05-16T05:40:04.198Z,80.69
2023-05-16T05:42:30.468Z,80.89
2023-05-16T05:44:56.707Z,79.28
2023-05-16T05:47:25.787Z,77.38
2023-05-16T05:49:52.299Z,77.04
2023-05-16T05:52:18.648Z,76.56
2023-05-16T05:54:45.088Z,76.42
2023-05-16T05:57:11.389Z,74.42
2023-05-16T05:59:37.795Z,74.07
2023-05-16T06:02:04.583Z,72.95
2023-05-16T06:04:31.055Z,72.66
2023-05-16T06:06:57.455Z,72.82
2023-05-16T06:09:23.678Z,73.44
2023-05-16T06:11:50.445Z,74.52
2023-05-16T06:14:16.673Z,74.88
2023-05-16T06:16:43.130Z,74.92
2023-05-16T06:19:11.690Z,75.52
2023-05-16T06:21:38.034Z,76.15
2023-05-16T06:24:04.494Z,75.93
2023-05-16T06:26:31.113Z,76.16
2023-05-16T06:28:57.526Z,76.37
2023-05-16T06:31:24.281Z,76.54
2023-05-16T06:33:50.756Z,76.04
2023-05-16T06:36:17.086Z,75.83
2023-05-16T06:38:43.424Z,75.92
2023-05-16T06:41:09.812Z,75.73
2023-05-16T06:43:36.127Z,75.57
2023-05-16T06:46:03.298Z,75.04
2023-05-16T06:48:29.751Z,74.77
2023-05-16T06:50:56.951Z,75.05
2023-05-16T06:53:23.396Z,75.12
2023-05-16T06:55:50.662Z,75.44
2023-05-16T06:58:18.072Z,75.34
2023-05-16T07:00:44.621Z,75.80
2023-05-16T07:03:11.134Z,75.83
2023-05-16T07:05:37.558Z,75.90
2023-05-16T07:08:06.234Z,73.81
2023-05-16T07:10:34.307Z,73.68
2023-05-16T07:13:01.183Z,72.35
2023-05-16T07:15:28.098Z,71.43
2023-05-16T07:17:54.721Z,71.33
2023-05-16T07:20:21.383Z,71.32
2023-05-16T07:22:47.856Z,71.23
2023-05-16T07:25:15.325Z,71.90
2023-05-16T07:27:44.154Z,71.72
2023-05-16T07:30:13.942Z,71.36
2023-05-16T07:32:41.047Z,71.63
2023-05-16T07:35:07.907Z,72.19
2023-05-16T07:37:35.388Z,72.23
2023-05-16T07:40:02.981Z,71.88
2023-05-16T07:42:31.153Z,70.82
2023-05-16T07:44:57.635Z,69.59
2023-05-16T07:47:24.041Z,68.65
2023-05-16T07:49:50.674Z,67.14
2023-05-16T07:52:17.533Z,64.60
2023-05-16T07:54:46.621Z,63.41
2023-05-16T07:57:16.454Z,62.60
2023-05-16T07:59:43.849Z,63.36
2023-05-16T08:02:10.802Z,63.99
2023-05-16T08:04:37.379Z,63.44
2023-05-16T08:07:04.176Z,63.24
2023-05-16T08:09:30.795Z,62.92
2023-05-16T08:11:57.119Z,64.33
2023-05-16T08:14:23.442Z,65.47
2023-05-16T08:16:49.983Z,65.61
2023-05-16T08:19:16.578Z,65.84
2023-05-16T08:21:43.308Z,66.65
2023-05-16T08:24:10.681Z,67.81
2023-05-16T08:26:37.968Z,67.81
2023-05-16T08:29:05.269Z,68.07
2023-05-16T08:31:32.372Z,68.62
2023-05-16T08:33:59.394Z,68.47
2023-05-16T08:36:26.324Z,68.72
2023-05-16T08:38:52.792Z,68.96
2023-05-16T08:41:19.177Z,68.60
2023-05-16T08:43:46.167Z,67.57
2023-05-16T08:46:12.849Z,67.34
2023-05-16T08:48:42.171Z,67.38
2023-05-16T08:51:10.140Z,66.22
2023-05-16T08:53:41.937Z,65.96
2023-05-16T08:56:09.804Z,65.55
2023-05-16T08:58:37.360Z,64.43
2023-05-16T09:01:08.327Z,63.88
2023-05-16T09:03:38.477Z,64.16
2023-05-16T09:06:07.311Z,64.03
2023-05-16T09:08:34.540Z,62.98
2023-05-16T09:11:04.739Z,62.84
2023-05-16T09:13:31.027Z,63.55
2023-05-16T09:16:14.948Z,63.39
2023-05-16T09:18:44.104Z,64.07
2023-05-16T09:21:11.938Z,63.74
2023-05-16T09:23:38.837Z,64.24
2023-05-16T09:26:07.410Z,63.18
2023-05-16T09:28:36.611Z,62.62
2023-05-16T09:31:03.103Z,62.24
2023-05-16T09:33:29.693Z,62.45
2023-05-16T09:35:57.582Z,61.72
2023-05-16T09:38:25.761Z,62.04
2023-05-16T09:40:52.935Z,62.69
2023-05-16T09:43:23.008Z,61.05
2023-05-16T09:45:49.538Z,60.71
2023-05-16T09:48:17.313Z,60.65
2023-05-16T09:50:52.532Z,59.11
2023-05-16T09:53:34.510Z,59.58
2023-05-16T09:56:07.222Z,59.32
2023-05-16T09:58:35.865Z,60.13
2023-05-16T10:01:02.655Z,60.00
2023-05-16T10:03:29.632Z,60.48
2023-05-16T10:05:56.222Z,60.86
2023-05-16T10:08:25.185Z,61.15
2023-05-16T10:10:54.351Z,61.35
2023-05-16T10:13:28.656Z,60.84
2023-05-16T10:15:56.596Z,61.25
2023-05-16T10:18:29.706Z,61.75
2023-05-16T10:21:01.752Z,61.95
2023-05-16T10:23:29.965Z,62.26
2023-05-16T10:25:57.222Z,61.31
2023-05-16T10:28:25.042Z,60.97
2023-05-16T10:30:53.242Z,61.54
2023-05-16T10:33:19.848Z,61.52
2023-05-16T10:35:46.570Z,61.57
2023-05-16T10:38:17.512Z,60.89
2023-05-16T10:40:47.041Z,60.28
2023-05-16T10:43:24.669Z,60.87
2023-05-16T10:45:55.627Z,60.90
2023-05-16T10:48:30.476Z,61.50
2023-05-16T10:50:56.836Z,61.50
2023-05-16T10:53:33.400Z,61.11
2023-05-16T10:55:59.970Z,61.47
2023-05-16T10:58:38.295Z,61.84
2023-05-16T11:01:23.778Z,61.88
2023-05-16T11:03:56.250Z,61.22
2023-05-16T11:06:25.173Z,61.58
2023-05-16T11:09:10.334Z,61.53
2023-05-16T11:11:52.246Z,62.16
2023-05-16T11:14:34.068Z,61.61
2023-05-16T11:17:13.002Z,60.63
2023-05-16T11:19:47.136Z,60.08
2023-05-16T11:22:19.280Z,60.09
2023-05-16T11:24:54.619Z,60.38
2023-05-16T11:27:23.232Z,60.67
2023-05-16T11:29:50.303Z,59.71
2023-05-16T11:32:20.506Z,59.67
2023-05-16T11:34:47.616Z,60.09
2023-05-16T11:37:15.160Z,59.75
2023-05-16T11:39:41.588Z,59.85
2023-05-16T11:42:08.763Z,60.03
2023-05-16T11:44:35.115Z,60.47
2023-05-16T11:47:02.021Z,59.88
2023-05-16T11:49:29.378Z,59.04
2023-05-16T11:51:57.119Z,58.84
2023-05-16T11:54:24.088Z,59.07
2023-05-16T11:56:51.834Z,58.53
2023-05-16T11:59:18.319Z,58.40
2023-05-16T12:01:47.535Z,58.95
2023-05-16T12:04:19.516Z,58.91
2023-05-16T12:06:59.197Z,58.30
2023-05-16T12:09:25.899Z,55.94
2023-05-16T12:11:52.669Z,55.40
2023-05-16T12:14:19.578Z,51.80
2023-05-16T12:16:46.318Z,49.24
2023-05-16T12:19:13.388Z,48.31
2023-05-16T12:21:39.962Z,49.40
2023-05-16T12:24:12.249Z,50.89
2023-05-16T12:26:40.680Z,50.30
2023-05-16T12:29:07.409Z,51.61
2023-05-16T12:31:39.802Z,52.10
2023-05-16T12:34:17.156Z,52.05
2023-05-16T12:36:51.266Z,53.48
2023-05-16T12:39:17.779Z,53.42
2023-05-16T12:41:44.190Z,52.06
2023-05-16T12:44:14.193Z,51.53
2023-05-16T12:46:42.170Z,50.71
2023-05-16T12:49:08.997Z,50.02
2023-05-16T12:51:35.708Z,49.06
2023-05-16T12:54:11.637Z,49.40
2023-05-16T12:56:39.403Z,51.10
2023-05-16T12:59:05.868Z,52.26
2023-05-16T13:01:33.002Z,53.39
2023-05-16T13:03:59.451Z,54.37
2023-05-16T13:06:27.886Z,55.12
2023-05-16T13:08:55.375Z,56.04
2023-05-16T13:11:22.024Z,57.09
2023-05-16T13:13:48.426Z,56.69
2023-05-16T13:16:15.036Z,56.83
2023-05-16T13:18:41.487Z,56.79
2023-05-16T13:21:08.016Z,56.10
2023-05-16T13:23:34.336Z,56.11
2023-05-16T13:26:00.653Z,56.73
2023-05-16T13:28:27.088Z,55.66
2023-05-16T13:30:53.481Z,54.01
2023-05-16T13:33:19.761Z,53.29
2023-05-16T13:35:46.870Z,53.14
2023-05-16T13:38:13.362Z,51.04
2023-05-16T13:40:39.760Z,49.77
2023-05-16T13:43:06.140Z,50.52
2023-05-16T13:45:32.899Z,49.85
2023-05-16T13:47:59.428Z,49.59
2023-05-16T13:50:33.332Z,50.30
2023-05-16T13:53:00.327Z,51.23
2023-05-16T13:55:27.621Z,51.68
2023-05-16T13:57:54.209Z,51.67
2023-05-16T14:02:50.330Z,52.02
2023-05-16T14:05:16.935Z,51.32
2023-05-16T14:07:44.762Z,49.26
2023-05-16T14:10:13.267Z,47.29
2023-05-16T14:12:40.085Z,47.18
2023-05-16T14:15:07.295Z,47.20
2023-05-16T14:17:33.628Z,47.41
2023-05-16T14:19:59.969Z,46.95
2023-05-16T14:22:27.875Z,46.98
2023-05-16T14:24:54.299Z,46.95
2023-05-16T14:27:20.805Z,47.13
2023-05-16T14:29:48.175Z,47.18
2023-05-16T14:32:14.759Z,46.89
2023-05-16T14:34:41.318Z,46.26
2023-05-16T14:37:09.668Z,46.46
2023-05-16T14:39:36.157Z,47.48
2023-05-16T14:42:02.654Z,48.40
2023-05-16T14:44:29.157Z,48.34
2023-05-16T14:46:55.612Z,47.40
2023-05-16T14:49:22.048Z,46.10
2023-05-16T14:51:51.271Z,46.53
2023-05-16T14:54:18.380Z,46.29
2023-05-16T14:56:44.976Z,45.91
2023-05-16T14:59:12.141Z,45.54
2023-05-16T15:01:41.556Z,46.18
2023-05-16T15:04:07.953Z,47.55
2023-05-16T15:06:34.863Z,48.46
2023-05-16T15:09:01.260Z,48.78
2023-05-16T15:11:28.402Z,49.45
2023-05-16T15:13:56.517Z,49.33
2023-05-16T15:16:22.819Z,49.79
2023-05-16T15:18:49.339Z,49.93
2023-05-16T15:21:16.670Z,49.16
2023-05-16T15:23:43.053Z,49.45
2023-05-16T15:26:09.491Z,49.04
2023-05-16T15:28:35.915Z,48.60
2023-05-16T15:31:04.852Z,49.34
2023-05-16T15:33:31.144Z,49.42
2023-05-16T15:35:57.465Z,49.82
2023-05-16T15:38:23.719Z,50.50
2023-05-16T15:40:55.252Z,50.92
2023-05-16T15:43:28.088Z,50.52
2023-05-16T15:45:54.347Z,50.52
2023-05-16T15:48:21.018Z,51.43
2023-05-16T15:50:47.361Z,52.58
2023-05-16T15:53:13.710Z,53.42
2023-05-16T15:55:40.315Z,54.48
2023-05-16T15:58:09.350Z,53.33
2023-05-16T16:00:35.768Z,50.94
2023-05-16T16:03:02.272Z,51.56
2023-05-16T16:05:30.404Z,52.82
2023-05-16T16:08:00.074Z,53.11
2023-05-16T16:10:26.493Z,53.71
2023-05-16T16:13:03.660Z,53.85
2023-05-16T16:15:33.179Z,54.61
2023-05-16T16:18:01.528Z,54.53
2023-05-16T16:20:28.042Z,55.97
2023-05-16T16:22:54.476Z,56.13
2023-05-16T16:25:21.096Z,56.73
2023-05-16T16:27:47.726Z,57.19
2023-05-16T16:30:14.432Z,57.73
2023-05-16T16:32:40.893Z,58.49
2023-05-16T16:35:07.781Z,59.03
2023-05-16T16:37:34.957Z,59.38
2023-05-16T16:40:01.569Z,59.71
2023-05-16T16:42:29.829Z,59.83
2023-05-16T16:44:56.447Z,59.12
2023-05-16T16:47:24.337Z,59.18
2023-05-16T16:49:51.077Z,58.92
2023-05-16T16:52:17.478Z,58.63
2023-05-16T16:54:43.850Z,58.41
2023-05-16T16:57:10.429Z,59.17
2023-05-16T16:59:36.816Z,60.27
2023-05-16T17:02:03.254Z,60.83
2023-05-16T17:04:30.770Z,61.20
2023-05-16T17:06:57.163Z,60.81
2023-05-16T17:09:24.690Z,59.84
2023-05-16T17:11:51.562Z,59.47
2023-05-16T17:14:38.841Z,59.38
2023-05-16T17:17:05.623Z,59.53
2023-05-16T17:19:32.227Z,60.11
2023-05-16T17:21:58.754Z,60.38
2023-05-16T17:24:25.184Z,60.49
2023-05-16T17:26:51.925Z,60.73
2023-05-16T17:29:18.896Z,60.71
2023-05-16T17:31:45.384Z,60.96
2023-05-16T17:34:11.879Z,60.81
2023-05-16T17:36:38.735Z,61.45
2023-05-16T17:39:07.467Z,61.84
2023-05-16T17:41:34.832Z,62.23
2023-05-16T17:44:01.267Z,62.70
2023-05-16T17:46:27.758Z,62.42
2023-05-16T17:48:54.154Z,62.73
2023-05-16T17:51:20.593Z,63.41
2023-05-16T17:53:47.040Z,63.75
2023-05-16T17:56:13.433Z,64.27
2023-05-16T17:58:39.887Z,64.87
2023-05-16T18:01:08.451Z,65.37
2023-05-16T18:03:35.530Z,65.83
2023-05-16T18:06:02.113Z,66.62
2023-05-16T18:08:28.595Z,67.43
2023-05-16T18:10:55.099Z,67.90
2023-05-16T18:13:23.274Z,68.13
2023-05-16T18:15:50.168Z,68.46
2023-05-16T18:18:17.226Z,68.42
2023-05-16T18:20:45.353Z,68.73
2023-05-16T18:23:11.989Z,68.99
2023-05-16T18:25:38.501Z,68.94
2023-05-16T18:28:04.995Z,69.30
2023-05-16T18:30:31.511Z,69.98
2023-05-16T18:32:58.960Z,70.54
2023-05-16T18:35:27.670Z,71.06
2023-05-16T18:37:54.478Z,71.53
2023-05-16T18:40:21.920Z,71.82
2023-05-16T18:42:48.406Z,72.01
2023-05-16T18:45:14.943Z,72.30
2023-05-16T18:47:41.505Z,72.51
2023-05-16T18:50:08.583Z,72.73
2023-05-16T18:52:36.328Z,72.84
2023-05-16T18:55:03.145Z,73.02
2023-05-16T18:57:29.930Z,73.08
2023-05-16T18:59:57.517Z,73.28
2023-05-16T19:02:37.829Z,73.53
2023-05-16T19:05:09.823Z,73.65
2023-05-16T19:07:36.395Z,73.78
2023-05-16T19:10:04.051Z,73.92
2023-05-16T19:12:34.496Z,73.96
2023-05-16T19:15:02.650Z,73.79
2023-05-16T19:17:29.376Z,73.89
2023-05-16T19:19:56.015Z,73.99
2023-05-16T19:22:22.638Z,73.94
2023-05-16T19:24:49.404Z,74.03
2023-05-16T19:27:16.047Z,74.18
2023-05-16T19:29:42.535Z,74.44
2023-05-16T19:32:10.292Z,74.87
2023-05-16T19:34:37.029Z,75.19
2023-05-16T19:37:03.620Z,75.32
2023-05-16T19:39:31.366Z,75.40
2023-05-16T19:42:06.230Z,75.61
2023-05-16T19:44:34.482Z,75.86
2023-05-16T19:47:01.274Z,75.94
2023-05-16T19:49:28.746Z,75.84
2023-05-16T19:51:56.702Z,76.03
2023-05-16T19:54:26.188Z,76.38
2023-05-16T19:56:55.216Z,76.71
2023-05-16T19:59:21.995Z,76.92
2023-05-16T20:01:48.586Z,77.07
2023-05-16T20:04:15.161Z,77.15
2023-05-16T20:06:41.916Z,77.17
2023-05-16T20:09:08.720Z,77.28
2023-05-16T20:11:35.840Z,77.49
2023-05-16T20:14:02.701Z,77.65
2023-05-16T20:16:29.357Z,77.76
2023-05-16T20:18:56.341Z,77.87
2023-05-16T20:21:23.523Z,78.01
2023-05-16T20:23:50.219Z,78.17
2023-05-16T20:26:16.605Z,78.37
2023-05-16T20:28:42.978Z,78.59
2023-05-16T20:31:09.540Z,78.74
2023-05-16T20:33:36.011Z,78.90
2023-05-16T20:36:04.286Z,78.97
2023-05-16T20:38:30.834Z,79.03
2023-05-16T20:40:57.500Z,79.18
2023-05-16T20:43:25.932Z,79.28
2023-05-16T20:45:53.109Z,79.39
2023-05-16T20:48:20.251Z,79.53
2023-05-16T20:50:46.876Z,79.60
2023-05-16T20:53:13.255Z,79.54
2023-05-16T20:55:39.679Z,79.47
2023-05-16T20:58:06.128Z,79.53
2023-05-16T21:00:33.086Z,79.66
2023-05-16T21:02:59.453Z,79.81
2023-05-16T21:05:26.219Z,79.86
2023-05-16T21:07:53.744Z,79.91
2023-05-16T21:10:20.126Z,80.02
2023-05-16T21:12:46.553Z,80.14
2023-05-16T21:15:13.040Z,80.29
2023-05-16T21:17:40.983Z,80.38
2023-05-16T21:20:08.323Z,80.44
2023-05-16T21:22:35.083Z,80.49
2023-05-16T21:25:01.546Z,80.49
2023-05-16T21:27:27.974Z,80.56
2023-05-16T21:29:54.382Z,80.61
2023-05-16T21:32:20.819Z,80.61
2023-05-16T21:34:47.233Z,80.66
2023-05-16T21:37:14.145Z,80.76
2023-05-16T21:39:40.646Z,80.94
2023-05-16T21:42:07.089Z,81.09
2023-05-16T21:44:33.478Z,81.15
2023-05-16T21:46:59.852Z,81.21
2023-05-16T21:49:26.429Z,81.33
2023-05-16T21:51:52.957Z,81.34
2023-05-16T21:54:19.376Z,81.33
2023-05-16T21:56:45.800Z,81.21
2023-05-16T21:59:13.142Z,81.08
2023-05-16T22:01:39.526Z,80.58
2023-05-16T22:04:06.318Z,80.30
2023-05-16T22:06:34.197Z,80.23
2023-05-16T22:09:01.114Z,80.35
2023-05-16T22:11:27.834Z,80.53
2023-05-16T22:13:54.376Z,80.74
2023-05-16T22:16:21.001Z,81.00
2023-05-16T22:18:47.720Z,81.16
2023-05-16T22:21:15.700Z,81.34
2023-05-16T22:23:42.656Z,81.55
2023-05-16T22:26:09.386Z,81.66
2023-05-16T22:28:35.893Z,81.76
2023-05-16T22:31:02.275Z,82.00
2023-05-16T22:33:28.821Z,82.33
2023-05-16T22:35:55.534Z,82.50
2023-05-16T22:38:21.892Z,82.58
2023-05-16T22:40:48.410Z,82.56
2023-05-16T22:43:14.987Z,82.77
2023-05-16T22:45:41.420Z,83.02
2023-05-16T22:48:08.011Z,83.26
2023-05-16T22:50:34.651Z,83.39
2023-05-16T22:53:01.001Z,83.41
2023-05-16T22:55:27.731Z,83.41
2023-05-16T22:57:56.581Z,83.45
2023-05-16T23:00:23.106Z,83.48
2023-05-16T23:02:49.672Z,83.57
2023-05-16T23:05:16.408Z,83.74
2023-05-16T23:07:42.875Z,84.00
2023-05-16T23:10:09.361Z,84.24
2023-05-16T23:12:35.835Z,84.58
2023-05-16T23:15:02.767Z,85.06
2023-05-16T23:17:29.346Z,85.31
2023-05-16T23:19:55.885Z,85.57
2023-05-16T23:22:22.345Z,85.80
2023-05-16T23:24:48.695Z,85.93
2023-05-16T23:27:15.125Z,86.15
2023-05-16T23:29:41.791Z,86.41
2023-05-16T23:32:08.532Z,86.57
2023-05-16T23:34:35.026Z,86.67
2023-05-16T23:37:01.576Z,86.88
2023-05-16T23:39:28.192Z,87.12
2023-05-16T23:41:54.877Z,87.27
2023-05-16T23:44:21.213Z,87.27
2023-05-16T23:46:47.801Z,87.34
2023-05-16T23:49:14.255Z,87.52
2023-05-16T23:51:56.081Z,87.67
2023-05-16T23:54:27.294Z,87.77
2023-05-16T23:56:53.714Z,87.89
2023-05-16T23:59:21.792Z,88.10
